Latest Weather Observations for Whyalla

IDS60801

Issued at 10:35 am CST Friday 25 July 2014 (issued every 30 minutes, with the page automatically refreshed every 10 minutes)

About weather observations | Map of weather stations | Latest weather observations for SA | Other Formats
Station Details ID: 018120 Name: WHYALLA AERO Lat: -33.05 Lon: 137.52 Height: 6.5 m
Data from the previous 72 hours. | See also: Recent months at Whyalla
Date/Time
CST
Temp
°C
App
Temp
°C
Dew
Point
Rel
Hum
%
Delta-T
°C
Wind Press
QNH
hPa
Press
MSL
hPa
Rain
since 9 am
mm
Dir
 
Spd
km/h
Gust
km/h
Spd
kts
Gust
kts
25/10:30am 13.5 11.5 10.1 80 1.8 NW 11 17 6 9 1020.7 - 0.0
25/10:00am 11.8 8.9 9.7 87 1.1 NW 15 19 8 10 1020.6 - 0.0
25/09:30am 11.7 8.8 9.8 88 1.0 NW 15 19 8 10 1020.3 - 0.0
25/09:00am 11.3 7.7 9.7 90 0.8 NNW 19 24 10 13 1019.8 1019.7 2.0
25/08:30am 10.6 7.3 9.4 92 0.6 NNW 17 24 9 13 1019.4 - 2.0
25/08:00am 9.9 6.8 9.0 94 0.4 NNW 15 17 8 9 1019.0 - 2.0
25/07:30am 9.8 7.1 8.9 94 0.4 NW 13 15 7 8 1018.5 - 2.0
25/07:00am 9.8 6.3 8.9 94 0.4 NNW 17 20 9 11 1018.3 - 2.0
25/06:30am 9.7 6.6 8.9 95 0.4 NNW 15 17 8 9 1018.0 - 2.0
25/06:00am 9.7 7.0 8.9 95 0.4 NNW 13 15 7 8 1017.5 1017.4 2.0
25/05:30am 9.8 6.7 9.0 95 0.4 NW 15 19 8 10 1017.1 - 2.0
25/05:00am 9.6 6.1 8.8 95 0.4 NNW 17 19 9 10 1016.7 - 2.0
25/04:30am 9.8 6.7 8.9 94 0.4 NNW 15 19 8 10 1016.6 - 2.0
25/04:00am 10.0 7.8 9.2 95 0.4 NNW 11 15 6 8 1016.3 - 2.0
25/03:30am 9.9 7.2 9.1 95 0.4 NW 13 15 7 8 1016.2 - 2.0
25/03:00am 10.1 7.1 9.2 94 0.4 NW 15 19 8 10 1016.1 1016.0 2.0
25/02:30am 9.9 6.1 9.0 94 0.4 NNW 19 20 10 11 1015.9 - 2.0
25/02:00am 9.8 6.3 8.9 94 0.4 NNW 17 20 9 11 1015.7 - 2.0
25/01:30am 9.8 7.1 8.9 94 0.4 NNW 13 17 7 9 1015.7 - 2.0
25/01:00am 9.8 6.7 8.9 94 0.4 NNW 15 19 8 10 1015.5 - 2.0
25/12:30am 9.3 6.1 8.5 95 0.4 NNW 15 17 8 9 1015.5 - 2.0
25/12:00am 9.8 6.8 9.2 96 0.3 NNW 15 17 8 9 1015.6 1015.5 2.0
 
Date/Time
CST
Temp
°C
App
Temp
°C
Dew
Point
Rel
Hum
%
Delta-T
°C
Wind Press
QNH
hPa
Press
MSL
hPa
Rain
since 9 am
mm
Dir
 
Spd
km/h
Gust
km/h
Spd
kts
Gust
kts
24/11:30pm 9.6 7.7 9.0 96 0.3 WNW 9 11 5 6 1015.6 - 2.0
24/11:00pm 9.4 7.4 8.6 95 0.4 WNW 9 9 5 5 1015.3 - 2.0
24/10:30pm 9.5 7.5 8.6 94 0.4 NW 9 11 5 6 1015.4 - 2.0
24/10:00pm 10.3 7.3 9.1 92 0.6 NW 15 19 8 10 1015.1 - 2.0
24/09:30pm 10.8 7.4 9.2 90 0.8 NW 17 20 9 11 1014.8 - 2.0
24/09:00pm 10.8 7.8 9.1 89 0.8 NW 15 17 8 9 1014.6 1014.5 2.0
24/08:30pm 11.0 8.4 9.3 89 0.8 NW 13 17 7 9 1014.3 - 2.0
24/08:00pm 12.0 9.2 9.9 87 1.1 NNW 15 17 8 9 1013.9 - 2.0
24/07:30pm 12.3 9.2 10.2 87 1.1 NW 17 20 9 11 1013.7 - 2.0
24/07:00pm 12.1 9.4 10.5 90 0.8 NW 15 17 8 9 1013.3 - 2.0
24/06:30pm 12.6 10.1 11.0 90 0.8 NW 15 19 8 10 1012.9 - 2.0
24/06:00pm 12.8 10.3 11.0 89 0.9 NW 15 19 8 10 1012.5 1012.4 2.0
24/05:31pm 12.9 11.2 11.3 90 0.8 NNW 11 20 6 11 1012.2 - 2.0
24/05:30pm 12.9 11.2 11.3 90 0.8 NNW 11 22 6 12 1012.2 - 2.0
24/05:10pm 13.7 8.2 10.5 81 1.7 W 30 44 16 24 1012.2 - 1.0
24/05:00pm 16.7 12.5 8.1 57 4.4 W 20 32 11 17 1011.6 - 0.0
24/04:30pm 17.1 12.2 8.5 57 4.4 WNW 24 35 13 19 1011.4 - 0.0
24/04:00pm 17.2 12.4 8.9 58 4.3 WNW 24 30 13 16 1011.1 - 0.0
24/03:30pm 17.4 10.6 7.5 52 5.0 W 33 46 18 25 1010.8 - 0.0
24/03:00pm 18.5 12.0 8.2 51 5.3 WNW 32 37 17 20 1010.4 1010.3 0.0
24/02:30pm 19.0 12.2 6.8 45 6.1 W 32 44 17 24 1010.0 - 0.0
24/02:00pm 18.8 12.1 7.3 47 5.8 W 32 43 17 23 1009.7 - 0.0
24/01:30pm 17.5 10.8 7.5 52 5.0 W 32 41 17 22 1009.9 - 0.0
24/01:00pm 18.1 10.4 7.2 49 5.5 W 37 46 20 25 1010.0 - 0.0
24/12:30pm 18.3 11.5 7.7 50 5.4 W 33 46 18 25 1010.1 - 0.0
24/12:00pm 17.1 11.0 8.3 56 4.5 W 30 43 16 23 1010.8 1010.7 0.0
24/11:40am 17.0 11.3 9.9 63 3.7 W 30 48 16 26 1011.2 - 0.0
24/11:30am 16.6 10.8 9.5 63 3.7 WNW 30 37 16 20 1011.4 - 0.0
24/11:00am 16.0 11.1 9.9 67 3.2 WNW 26 33 14 18 1011.3 - 0.0
24/10:30am 15.7 10.4 9.8 68 3.1 WNW 28 37 15 20 1011.0 - 0.0
24/10:00am 14.9 10.4 10.1 73 2.5 NW 24 37 13 20 1010.7 - 0.0
24/09:30am 14.5 9.8 10.5 77 2.1 WNW 26 35 14 19 1010.2 - 0.0
24/09:00am 13.4 8.7 10.8 84 1.4 WNW 26 37 14 20 1010.3 1010.2 2.0
24/08:30am 12.4 8.6 11.0 91 0.7 NW 22 32 12 17 1009.9 - 2.0
24/08:15am 12.0 8.2 11.1 94 0.5 NNW 22 28 12 15 1009.8 - 2.0
24/08:00am 11.8 7.6 11.0 95 0.4 NNW 24 33 13 18 1009.6 - 2.0
24/07:58am 11.8 7.6 11.0 95 0.4 NNW 24 33 13 18 1009.6 - 2.0
24/07:30am 11.5 7.4 10.1 91 0.7 NNW 22 28 12 15 1009.2 - 2.0
24/07:00am 11.3 6.4 9.9 91 0.7 NNW 26 33 14 18 1008.8 - 2.0
24/06:30am 11.1 7.0 10.0 93 0.6 NNW 22 28 12 15 1008.4 - 2.0
24/06:00am 11.3 7.2 10.2 93 0.6 NNW 22 28 12 15 1008.0 1007.9 2.0
24/05:30am 12.0 7.2 10.4 90 0.8 NNW 26 32 14 17 1007.8 - 2.0
24/05:00am 12.0 7.3 10.6 91 0.7 NNW 26 35 14 19 1007.5 - 2.0
24/04:30am 12.1 7.0 10.5 90 0.8 NNW 28 33 15 18 1007.1 - 2.0
24/04:00am 11.8 7.1 10.7 93 0.6 NNW 26 33 14 18 1006.9 - 2.0
24/03:30am 11.8 6.3 10.4 91 0.7 NNW 30 39 16 21 1006.7 - 2.0
24/03:00am 11.9 5.8 10.5 91 0.7 NNW 33 46 18 25 1006.6 1006.5 2.0
24/02:30am 12.4 6.2 10.1 86 1.2 NNW 33 46 18 25 1006.4 - 2.0
24/02:00am 12.4 6.4 10.1 86 1.2 N 32 41 17 22 1006.4 - 2.0
24/01:30am 12.6 6.5 9.8 83 1.4 N 32 46 17 25 1006.2 - 2.0
24/01:00am 12.8 6.6 9.4 80 1.7 N 32 46 17 25 1006.3 - 2.0
24/12:30am 12.7 6.5 9.5 81 1.6 NNW 32 43 17 23 1006.6 - 2.0
24/12:00am 12.4 6.3 9.6 83 1.4 N 32 41 17 22 1006.8 1006.7 2.0
 
Date/Time
CST
Temp
°C
App
Temp
°C
Dew
Point
Rel
Hum
%
Delta-T
°C
Wind Press
QNH
hPa
Press
MSL
hPa
Rain
since 9 am
mm
Dir
 
Spd
km/h
Gust
km/h
Spd
kts
Gust
kts
23/11:30pm 12.6 6.7 9.1 79 1.8 N 30 43 16 23 1007.0 - 2.0
23/11:00pm 12.4 7.2 8.9 79 1.8 N 26 35 14 19 1007.5 - 2.0
23/10:30pm 12.6 6.3 8.9 78 1.9 N 32 43 17 23 1007.6 - 2.0
23/10:00pm 12.4 6.1 9.1 80 1.7 N 32 41 17 22 1007.8 - 2.0
23/09:30pm 12.3 6.0 9.1 81 1.6 N 32 44 17 24 1008.0 - 2.0
23/09:00pm 12.2 6.9 8.5 78 1.8 N 26 35 14 19 1008.5 1008.4 2.0
23/08:42pm 12.7 6.9 7.8 72 2.4 NNW 28 50 15 27 1008.6 - 1.8
23/08:30pm 12.4 8.1 7.7 73 2.3 NNE 20 32 11 17 1008.1 - 1.8
23/08:00pm 11.5 7.4 7.8 78 1.8 NNE 19 24 10 13 1008.3 - 1.8
23/07:30pm 11.2 6.9 7.9 80 1.6 NE 20 30 11 16 1008.4 - 1.8
23/07:00pm 11.8 7.1 7.7 76 2.0 NNE 22 30 12 16 1008.3 - 1.8
23/06:30pm 12.3 6.0 7.4 72 2.4 NNE 30 37 16 20 1008.7 - 1.8
23/06:00pm 12.3 7.2 7.8 74 2.2 NNE 24 33 13 18 1008.9 1008.8 1.8
23/05:30pm 12.1 6.7 8.2 77 1.9 NNE 26 37 14 20 1009.1 - 1.8
23/05:00pm 12.5 7.5 8.2 75 2.1 NNE 24 33 13 18 1009.8 - 1.6
23/04:30pm 12.3 8.4 8.6 78 1.8 N 19 28 10 15 1010.0 - 1.6
23/04:00pm 12.0 7.2 8.7 80 1.6 N 24 35 13 19 1009.9 - 1.6
23/03:30pm 13.2 7.9 8.3 72 2.4 N 26 33 14 18 1009.9 - 0.8
23/03:14pm 13.4 6.4 8.3 71 2.5 N 35 54 19 29 1009.8 - 0.8
23/03:00pm 15.0 7.6 6.8 58 4.0 N 35 50 19 27 1009.5 1009.4 0.2
23/02:42pm 17.3 9.3 3.9 41 6.3 N 35 57 19 31 1008.9 - 0.2
23/02:30pm 17.5 9.4 3.0 38 6.7 N 35 50 19 27 1009.0 - 0.2
23/02:04pm 17.0 10.0 4.0 42 6.1 N 30 48 16 26 1009.8 - 0.2
23/02:00pm 17.1 9.4 3.4 40 6.3 N 33 48 18 26 1009.7 - 0.2
23/01:38pm 17.0 8.4 4.7 44 5.8 N 39 50 21 27 1009.9 - 0.2
23/01:30pm 17.0 12.1 5.3 46 5.6 NNE 20 32 11 17 1010.2 - 0.2
23/01:00pm 15.6 11.4 5.8 52 4.7 NNE 17 28 9 15 1011.2 - 0.2
23/12:30pm 15.1 10.6 5.9 54 4.4 NNE 19 28 10 15 1012.1 - 0.2
23/12:00pm 15.1 10.8 7.2 59 3.9 NNE 19 28 10 15 1012.9 1012.8 0.2
23/11:30am 13.5 9.0 8.6 72 2.5 ENE 22 30 12 16 1013.3 - 0.2
23/11:00am 13.0 9.3 7.9 71 2.5 NE 17 22 9 12 1014.8 - 0.2
23/10:30am 12.5 9.7 8.6 77 1.9 ENE 13 24 7 13 1015.1 - 0.0
23/10:00am 11.6 9.2 8.8 83 1.4 ENE 11 19 6 10 1015.3 - 0.0
23/09:30am 11.1 7.3 9.0 87 1.0 E 19 24 10 13 1015.3 - 0.0
23/09:00am 11.0 9.3 8.4 84 1.3 NE 7 9 4 5 1016.7 1016.6 1.0
23/08:30am 10.4 8.6 7.8 84 1.3 N 7 9 4 5 1017.0 - 0.8
23/08:00am 10.9 7.0 7.0 77 1.9 NNW 17 24 9 13 1017.2 - 0.4
23/07:30am 11.5 9.3 6.2 70 2.5 N 7 11 4 6 1016.5 - 0.2
23/07:00am 11.1 9.0 6.0 71 2.4 N 6 9 3 5 1016.7 - 0.2
23/06:30am 11.0 7.8 5.3 68 2.6 NNW 11 13 6 7 1016.6 - 0.0
23/06:00am 9.8 6.6 5.0 72 2.2 NNW 11 13 6 7 1016.4 1016.3 0.0
23/05:30am 10.4 6.8 3.2 61 3.1 NW 11 13 6 7 1016.4 - 0.0
23/05:00am 10.3 6.2 2.4 58 3.4 WNW 13 19 7 10 1016.4 - 0.0
23/04:30am 9.7 6.8 2.8 62 2.9 WNW 7 9 4 5 1016.3 - 0.0
23/04:00am 10.4 7.7 2.5 58 3.4 NNW 6 9 3 5 1016.5 - 0.0
23/03:30am 10.2 8.3 3.0 61 3.1 NW 2 9 1 5 1017.0 - 0.0
23/03:00am 9.8 7.0 3.1 63 2.9 NW 7 9 4 5 1017.4 1017.3 0.0
23/02:30am 10.2 7.3 2.8 60 3.2 NW 7 9 4 5 1017.5 - 0.0
23/02:00am 11.1 8.4 2.9 57 3.6 N 6 9 3 5 1017.5 - 0.0
23/01:30am 11.2 8.4 2.2 54 3.8 NW 6 9 3 5 1018.0 - 0.0
23/01:00am 14.3 10.9 1.9 43 5.4 NE 9 13 5 7 1018.2 - 0.0
23/12:30am 13.9 10.5 1.9 44 5.2 N 9 15 5 8 1018.4 - 0.0
23/12:00am 13.1 9.4 2.6 49 4.6 NNE 11 15 6 8 1018.6 1018.5 0.0
 
Date/Time
CST
Temp
°C
App
Temp
°C
Dew
Point
Rel
Hum
%
Delta-T
°C
Wind Press
QNH
hPa
Press
MSL
hPa
Rain
since 9 am
mm
Dir
 
Spd
km/h
Gust
km/h
Spd
kts
Gust
kts
22/11:30pm 9.9 8.0 3.0 62 3.0 N 2 6 1 3 1019.1 - 0.0
22/11:00pm 11.0 8.0 4.2 63 3.0 N 9 9 5 5 1019.2 - 0.0
22/10:30pm 10.7 9.0 4.0 63 3.0 NNE 2 6 1 3 1019.2 - 0.0
22/10:00pm 12.4 9.5 4.6 59 3.6 NE 9 11 5 6 1019.2 - 0.0
22/09:30pm 11.3 8.4 4.7 64 3.0 ENE 9 11 5 6 1019.3 - 0.0
22/09:00pm 10.6 9.2 3.6 62 3.1 CALM 0 4 0 2 1019.4 1019.3 0.0
22/08:30pm 11.7 9.0 3.5 57 3.6 NE 7 9 4 5 1019.5 - 0.0
22/08:00pm 12.6 9.5 3.5 54 4.1 NNE 9 11 5 6 1019.8 - 0.0
22/07:30pm 13.1 10.4 3.7 53 4.2 NE 7 11 4 6 1019.5 - 0.0
22/07:00pm 13.0 9.6 3.9 54 4.1 ENE 11 13 6 7 1019.3 - 0.0
22/06:30pm 14.0 11.2 2.9 47 4.9 NE 7 11 4 6 1019.6 - 0.0
22/06:00pm 15.1 11.6 3.3 45 5.3 NE 11 15 6 8 1019.4 1019.3 0.0
22/05:30pm 14.5 11.6 6.3 58 3.9 E 11 13 6 7 1019.1 - 0.0
22/05:00pm 16.0 13.7 5.6 50 5.0 E 7 11 4 6 1019.1 - 0.0
22/04:30pm 17.2 14.4 5.2 45 5.8 E 9 13 5 7 1019.2 - 0.0
22/04:00pm 17.4 13.9 5.4 45 5.8 E 13 17 7 9 1019.0 - 0.0
22/03:30pm 18.3 14.5 5.8 44 6.1 E 15 19 8 10 1019.2 - 0.0
22/03:00pm 18.1 14.3 5.7 44 6.0 E 15 20 8 11 1019.6 1019.5 0.0
22/02:30pm 17.6 13.6 6.8 49 5.4 E 17 20 9 11 1019.7 - 0.0
22/02:00pm 17.3 13.3 6.5 49 5.3 E 17 22 9 12 1019.3 - 0.0
22/01:30pm 16.4 12.3 6.2 51 5.0 E 17 22 9 12 1020.2 - 0.0
22/01:00pm 16.9 13.7 8.3 57 4.4 ESE 15 19 8 10 1021.1 - 0.0
22/12:30pm 16.4 13.1 7.9 57 4.3 E 15 17 8 9 1021.8 - 0.0
22/12:00pm 15.8 12.4 6.0 52 4.7 E 13 17 7 9 1022.1 1022.0 0.0
22/11:30am 16.5 13.6 4.5 45 5.6 E 9 15 5 8 1022.5 - 0.0
22/11:00am 15.8 13.1 3.9 45 5.5 E 7 11 4 6 1022.9 - 0.0

Other Formats:

Comma delimited format used in spreadsheet applications
http://www.bom.gov.au/fwo/IDS60801/IDS60801.95664.axf

JavaScript Object Notation format (JSON) in row-major order
http://www.bom.gov.au/fwo/IDS60801/IDS60801.95664.json